sensor_id;sensor_type;location;lat;lon;timestamp;temperature;humidity
52024;DHT22;38038;45.922;13.604;2022-08-21T18:01:42;21.10;99.90
52024;DHT22;38038;45.922;13.604;2022-08-21T18:04:10;21.00;99.90
52024;DHT22;38038;45.922;13.604;2022-08-21T18:06:37;21.00;99.90
52024;DHT22;38038;45.922;13.604;2022-08-21T18:09:03;20.90;99.90
52024;DHT22;38038;45.922;13.604;2022-08-21T18:11:30;20.90;99.90
52024;DHT22;38038;45.922;13.604;2022-08-21T18:13:58;20.80;99.90
52024;DHT22;38038;45.922;13.604;2022-08-21T18:16:27;20.80;99.90
52024;DHT22;38038;45.922;13.604;2022-08-21T18:18:54;20.80;99.90
52024;DHT22;38038;45.922;13.604;2022-08-21T18:21:21;20.90;99.90
52024;DHT22;38038;45.922;13.604;2022-08-21T18:23:47;20.80;99.90
52024;DHT22;38038;45.922;13.604;2022-08-21T18:26:24;20.90;99.90
52024;DHT22;38038;45.922;13.604;2022-08-21T18:28:51;21.10;99.90
52024;DHT22;38038;45.922;13.604;2022-08-21T18:31:17;21.20;99.90
52024;DHT22;38038;45.922;13.604;2022-08-21T18:33:43;21.30;99.90
52024;DHT22;38038;45.922;13.604;2022-08-21T18:36:09;21.10;99.90
52024;DHT22;38038;45.922;13.604;2022-08-21T18:38:34;20.80;99.90
52024;DHT22;38038;45.922;13.604;2022-08-21T18:41:01;20.80;99.90
52024;DHT22;38038;45.922;13.604;2022-08-21T18:43:27;20.70;99.90
52024;DHT22;38038;45.922;13.604;2022-08-21T18:45:53;20.60;99.90
52024;DHT22;38038;45.922;13.604;2022-08-21T18:48:18;20.70;99.90
52024;DHT22;38038;45.922;13.604;2022-08-21T18:50:46;20.70;99.90
52024;DHT22;38038;45.922;13.604;2022-08-21T18:53:13;20.50;99.90
52024;DHT22;38038;45.922;13.604;2022-08-21T18:55:41;20.60;99.90
52024;DHT22;38038;45.922;13.604;2022-08-21T18:58:07;20.80;99.90
52024;DHT22;38038;45.922;13.604;2022-08-21T19:00:40;20.90;99.90
52024;DHT22;38038;45.922;13.604;2022-08-21T19:03:11;21.10;99.90
52024;DHT22;38038;45.922;13.604;2022-08-21T19:05:37;21.00;99.90
52024;DHT22;38038;45.922;13.604;2022-08-21T19:08:05;21.00;99.90
52024;DHT22;38038;45.922;13.604;2022-08-21T19:10:31;20.80;99.90
52024;DHT22;38038;45.922;13.604;2022-08-21T19:12:58;20.80;99.90
52024;DHT22;38038;45.922;13.604;2022-08-21T19:15:24;20.80;99.90
52024;DHT22;38038;45.922;13.604;2022-08-21T19:17:50;20.70;99.90
52024;DHT22;38038;45.922;13.604;2022-08-21T19:20:27;20.70;99.90
52024;DHT22;38038;45.922;13.604;2022-08-21T19:22:54;20.70;99.90
52024;DHT22;38038;45.922;13.604;2022-08-21T19:25:21;20.60;99.90
52024;DHT22;38038;45.922;13.604;2022-08-21T19:27:48;20.60;99.90
52024;DHT22;38038;45.922;13.604;2022-08-21T19:30:14;20.50;99.90
52024;DHT22;38038;45.922;13.604;2022-08-21T19:32:44;20.40;99.90
52024;DHT22;38038;45.922;13.604;2022-08-21T19:35:10;20.40;99.90
52024;DHT22;38038;45.922;13.604;2022-08-21T19:37:37;20.30;99.90
52024;DHT22;38038;45.922;13.604;2022-08-21T19:40:04;20.30;99.90
52024;DHT22;38038;45.922;13.604;2022-08-21T19:42:31;20.30;99.90
52024;DHT22;38038;45.922;13.604;2022-08-21T19:44:59;20.40;99.90
52024;DHT22;38038;45.922;13.604;2022-08-21T19:47:25;20.30;99.90
52024;DHT22;38038;45.922;13.604;2022-08-21T19:49:56;20.40;99.90
52024;DHT22;38038;45.922;13.604;2022-08-21T19:52:22;20.40;99.90
52024;DHT22;38038;45.922;13.604;2022-08-21T19:54:48;20.40;99.90
52024;DHT22;38038;45.922;13.604;2022-08-21T19:57:14;20.40;99.90
52024;DHT22;38038;45.922;13.604;2022-08-21T19:59:40;20.40;99.90
52024;DHT22;38038;45.922;13.604;2022-08-21T20:02:07;20.40;99.90
52024;DHT22;38038;45.922;13.604;2022-08-21T20:04:33;20.30;99.90
52024;DHT22;38038;45.922;13.604;2022-08-21T20:06:59;20.40;99.90
52024;DHT22;38038;45.922;13.604;2022-08-21T20:09:25;20.30;99.90
52024;DHT22;38038;45.922;13.604;2022-08-21T20:11:54;20.30;99.90
52024;DHT22;38038;45.922;13.604;2022-08-21T20:14:25;20.40;99.90
52024;DHT22;38038;45.922;13.604;2022-08-21T20:16:52;20.50;99.90
52024;DHT22;38038;45.922;13.604;2022-08-21T20:19:19;20.60;99.90
52024;DHT22;38038;45.922;13.604;2022-08-21T20:21:45;20.30;99.90
52024;DHT22;38038;45.922;13.604;2022-08-21T20:24:12;20.30;99.90
52024;DHT22;38038;45.922;13.604;2022-08-21T20:26:38;20.30;99.90
52024;DHT22;38038;45.922;13.604;2022-08-21T20:29:04;20.10;99.90
52024;DHT22;38038;45.922;13.604;2022-08-21T20:31:31;20.10;99.90
52024;DHT22;38038;45.922;13.604;2022-08-21T20:33:57;20.10;99.90
52024;DHT22;38038;45.922;13.604;2022-08-21T20:36:24;20.10;99.90
52024;DHT22;38038;45.922;13.604;2022-08-21T20:38:50;20.20;99.90
52024;DHT22;38038;45.922;13.604;2022-08-21T20:41:18;20.20;99.90
52024;DHT22;38038;45.922;13.604;2022-08-21T20:43:45;20.30;99.90
52024;DHT22;38038;45.922;13.604;2022-08-21T20:46:11;20.20;99.90
52024;DHT22;38038;45.922;13.604;2022-08-21T20:48:39;20.20;99.90
52024;DHT22;38038;45.922;13.604;2022-08-21T20:56:16;20.00;99.90
52024;DHT22;38038;45.922;13.604;2022-08-21T20:58:54;19.80;99.90
52024;DHT22;38038;45.922;13.604;2022-08-21T21:01:22;19.70;99.90
52024;DHT22;38038;45.922;13.604;2022-08-21T21:04:03;19.60;99.90
52024;DHT22;38038;45.922;13.604;2022-08-21T21:06:30;19.70;99.90
52024;DHT22;38038;45.922;13.604;2022-08-21T21:09:10;19.60;99.90
52024;DHT22;38038;45.922;13.604;2022-08-21T21:11:47;19.80;99.90
52024;DHT22;38038;45.922;13.604;2022-08-21T21:14:17;19.80;99.90
52024;DHT22;38038;45.922;13.604;2022-08-21T21:16:51;19.90;99.90
52024;DHT22;38038;45.922;13.604;2022-08-21T21:19:41;19.80;99.90
52024;DHT22;38038;45.922;13.604;2022-08-21T21:22:32;19.80;99.90
52024;DHT22;38038;45.922;13.604;2022-08-21T21:27:38;19.80;99.90
52024;DHT22;38038;45.922;13.604;2022-08-21T21:32:46;19.90;99.90
52024;DHT22;38038;45.922;13.604;2022-08-21T21:35:14;19.90;99.90
52024;DHT22;38038;45.922;13.604;2022-08-21T21:44:08;20.10;99.90
52024;DHT22;38038;45.922;13.604;2022-08-21T21:46:45;20.10;99.90
52024;DHT22;38038;45.922;13.604;2022-08-21T21:55:14;20.00;99.90
52024;DHT22;38038;45.922;13.604;2022-08-21T22:00:41;19.80;99.90
52024;DHT22;38038;45.922;13.604;2022-08-21T22:03:30;19.70;99.90
52024;DHT22;38038;45.922;13.604;2022-08-21T22:09:03;19.60;99.90
52024;DHT22;38038;45.922;13.604;2022-08-21T22:11:47;19.60;99.90
52024;DHT22;38038;45.922;13.604;2022-08-21T22:14:17;19.60;99.90
52024;DHT22;38038;45.922;13.604;2022-08-21T22:16:45;19.40;99.90
52024;DHT22;38038;45.922;13.604;2022-08-21T22:19:30;19.30;99.90
52024;DHT22;38038;45.922;13.604;2022-08-21T22:22:13;19.20;99.90
52024;DHT22;38038;45.922;13.604;2022-08-21T22:24:41;19.20;99.90
52024;DHT22;38038;45.922;13.604;2022-08-21T22:27:15;19.20;99.90
52024;DHT22;38038;45.922;13.604;2022-08-21T22:29:53;19.10;99.90
52024;DHT22;38038;45.922;13.604;2022-08-21T22:32:47;19.00;99.90
52024;DHT22;38038;45.922;13.604;2022-08-21T22:35:23;19.00;99.90
52024;DHT22;38038;45.922;13.604;2022-08-21T22:37:54;19.00;99.90
52024;DHT22;38038;45.922;13.604;2022-08-21T22:40:26;19.00;99.90
52024;DHT22;38038;45.922;13.604;2022-08-21T22:45:26;19.30;99.90
52024;DHT22;38038;45.922;13.604;2022-08-21T22:47:52;19.40;99.90
52024;DHT22;38038;45.922;13.604;2022-08-21T22:52:53;19.70;99.90
52024;DHT22;38038;45.922;13.604;2022-08-21T22:55:42;19.60;99.90
52024;DHT22;38038;45.922;13.604;2022-08-21T23:03:42;19.60;99.90
52024;DHT22;38038;45.922;13.604;2022-08-21T23:06:30;19.70;99.90
52024;DHT22;38038;45.922;13.604;2022-08-21T23:08:56;19.70;99.90
52024;DHT22;38038;45.922;13.604;2022-08-21T23:11:38;19.60;99.90
52024;DHT22;38038;45.922;13.604;2022-08-21T23:14:05;19.60;99.90
52024;DHT22;38038;45.922;13.604;2022-08-21T23:23:07;19.50;99.90
52024;DHT22;38038;45.922;13.604;2022-08-21T23:26:05;19.50;99.90
52024;DHT22;38038;45.922;13.604;2022-08-21T23:31:34;19.30;99.90
52024;DHT22;38038;45.922;13.604;2022-08-21T23:56:10;19.20;99.90
52024;DHT22;38038;45.922;13.604;2022-08-21T23:59:21;19.30;99.90
